sensor_id;sensor_type;location;lat;lon;timestamp;P1;durP1;ratioP1;P2;durP2;ratioP2
31112;SDS011;17763;48.730;9.136;2024-03-08T00:00:17;32.13;;;22.17;;
31112;SDS011;17763;48.730;9.136;2024-03-08T00:02:45;40.78;;;23.67;;
31112;SDS011;17763;48.730;9.136;2024-03-08T00:05:12;43.45;;;23.92;;
31112;SDS011;17763;48.730;9.136;2024-03-08T00:07:39;39.80;;;24.02;;
31112;SDS011;17763;48.730;9.136;2024-03-08T00:10:06;39.45;;;23.45;;
31112;SDS011;17763;48.730;9.136;2024-03-08T00:12:36;38.17;;;23.85;;
31112;SDS011;17763;48.730;9.136;2024-03-08T00:15:07;37.63;;;22.63;;
31112;SDS011;17763;48.730;9.136;2024-03-08T00:17:36;38.83;;;23.60;;
31112;SDS011;17763;48.730;9.136;2024-03-08T00:20:03;37.60;;;23.17;;
31112;SDS011;17763;48.730;9.136;2024-03-08T00:22:33;39.15;;;23.05;;
31112;SDS011;17763;48.730;9.136;2024-03-08T00:24:59;33.80;;;21.70;;
31112;SDS011;17763;48.730;9.136;2024-03-08T00:27:25;37.08;;;23.08;;
31112;SDS011;17763;48.730;9.136;2024-03-08T00:29:50;37.22;;;23.48;;
31112;SDS011;17763;48.730;9.136;2024-03-08T00:32:16;36.45;;;23.80;;
31112;SDS011;17763;48.730;9.136;2024-03-08T00:34:42;38.05;;;22.33;;
31112;SDS011;17763;48.730;9.136;2024-03-08T00:37:08;38.72;;;22.10;;
31112;SDS011;17763;48.730;9.136;2024-03-08T00:39:34;42.80;;;23.17;;
31112;SDS011;17763;48.730;9.136;2024-03-08T00:41:59;37.72;;;22.73;;
31112;SDS011;17763;48.730;9.136;2024-03-08T00:44:25;36.38;;;22.80;;
31112;SDS011;17763;48.730;9.136;2024-03-08T00:46:53;37.58;;;21.60;;
31112;SDS011;17763;48.730;9.136;2024-03-08T00:49:18;38.80;;;22.38;;
31112;SDS011;17763;48.730;9.136;2024-03-08T00:51:48;42.78;;;24.27;;
31112;SDS011;17763;48.730;9.136;2024-03-08T00:54:13;35.13;;;22.20;;
31112;SDS011;17763;48.730;9.136;2024-03-08T00:56:40;37.30;;;21.70;;
31112;SDS011;17763;48.730;9.136;2024-03-08T00:59:06;34.70;;;22.88;;
31112;SDS011;17763;48.730;9.136;2024-03-08T01:01:32;33.65;;;22.38;;
31112;SDS011;17763;48.730;9.136;2024-03-08T01:04:00;39.67;;;22.83;;
31112;SDS011;17763;48.730;9.136;2024-03-08T01:06:25;38.20;;;22.75;;
31112;SDS011;17763;48.730;9.136;2024-03-08T01:08:52;38.92;;;21.50;;
31112;SDS011;17763;48.730;9.136;2024-03-08T01:11:17;34.47;;;21.23;;
31112;SDS011;17763;48.730;9.136;2024-03-08T01:13:45;35.78;;;22.02;;
31112;SDS011;17763;48.730;9.136;2024-03-08T01:16:14;36.72;;;21.60;;
31112;SDS011;17763;48.730;9.136;2024-03-08T01:18:41;38.92;;;22.88;;
31112;SDS011;17763;48.730;9.136;2024-03-08T01:21:08;39.08;;;22.20;;
31112;SDS011;17763;48.730;9.136;2024-03-08T01:23:33;36.30;;;22.17;;
31112;SDS011;17763;48.730;9.136;2024-03-08T01:26:00;36.72;;;21.27;;
31112;SDS011;17763;48.730;9.136;2024-03-08T01:28:27;35.25;;;22.42;;
31112;SDS011;17763;48.730;9.136;2024-03-08T01:30:53;38.78;;;23.17;;
31112;SDS011;17763;48.730;9.136;2024-03-08T01:33:22;39.65;;;23.02;;
31112;SDS011;17763;48.730;9.136;2024-03-08T01:35:50;37.03;;;22.45;;
31112;SDS011;17763;48.730;9.136;2024-03-08T01:38:16;35.88;;;22.67;;
31112;SDS011;17763;48.730;9.136;2024-03-08T01:40:42;36.55;;;21.75;;
31112;SDS011;17763;48.730;9.136;2024-03-08T01:45:47;37.28;;;23.08;;
31112;SDS011;17763;48.730;9.136;2024-03-08T01:48:13;36.63;;;23.23;;
31112;SDS011;17763;48.730;9.136;2024-03-08T01:50:42;35.00;;;22.38;;
31112;SDS011;17763;48.730;9.136;2024-03-08T01:53:09;37.17;;;21.25;;
31112;SDS011;17763;48.730;9.136;2024-03-08T01:55:39;35.88;;;22.48;;
31112;SDS011;17763;48.730;9.136;2024-03-08T01:58:05;36.03;;;21.77;;
31112;SDS011;17763;48.730;9.136;2024-03-08T02:00:34;36.30;;;20.67;;
31112;SDS011;17763;48.730;9.136;2024-03-08T02:03:01;35.30;;;21.30;;
31112;SDS011;17763;48.730;9.136;2024-03-08T02:05:27;34.75;;;21.60;;
31112;SDS011;17763;48.730;9.136;2024-03-08T02:07:53;35.85;;;22.27;;
31112;SDS011;17763;48.730;9.136;2024-03-08T02:10:20;36.38;;;22.65;;
31112;SDS011;17763;48.730;9.136;2024-03-08T02:12:47;32.58;;;20.48;;
31112;SDS011;17763;48.730;9.136;2024-03-08T02:15:16;33.13;;;19.77;;
31112;SDS011;17763;48.730;9.136;2024-03-08T02:17:42;31.52;;;20.35;;
31112;SDS011;17763;48.730;9.136;2024-03-08T02:20:07;33.15;;;20.27;;
31112;SDS011;17763;48.730;9.136;2024-03-08T02:22:38;32.30;;;20.38;;
31112;SDS011;17763;48.730;9.136;2024-03-08T02:25:04;33.03;;;20.15;;
31112;SDS011;17763;48.730;9.136;2024-03-08T02:27:30;34.58;;;19.83;;
31112;SDS011;17763;48.730;9.136;2024-03-08T02:29:59;31.52;;;19.08;;
31112;SDS011;17763;48.730;9.136;2024-03-08T02:32:27;29.27;;;18.33;;
31112;SDS011;17763;48.730;9.136;2024-03-08T02:34:57;37.08;;;19.95;;
31112;SDS011;17763;48.730;9.136;2024-03-08T02:37:25;33.10;;;19.38;;
31112;SDS011;17763;48.730;9.136;2024-03-08T02:39:51;32.70;;;18.27;;
31112;SDS011;17763;48.730;9.136;2024-03-08T02:42:16;35.60;;;20.98;;
31112;SDS011;17763;48.730;9.136;2024-03-08T02:44:43;32.30;;;19.73;;
31112;SDS011;17763;48.730;9.136;2024-03-08T02:47:11;34.63;;;21.67;;
31112;SDS011;17763;48.730;9.136;2024-03-08T02:49:37;31.00;;;18.85;;
31112;SDS011;17763;48.730;9.136;2024-03-08T02:52:03;29.05;;;19.00;;
31112;SDS011;17763;48.730;9.136;2024-03-08T02:54:30;30.75;;;19.45;;
31112;SDS011;17763;48.730;9.136;2024-03-08T02:56:55;36.53;;;20.88;;
31112;SDS011;17763;48.730;9.136;2024-03-08T02:59:21;34.20;;;19.90;;
31112;SDS011;17763;48.730;9.136;2024-03-08T03:01:47;30.85;;;19.38;;
31112;SDS011;17763;48.730;9.136;2024-03-08T03:04:12;33.05;;;20.33;;
31112;SDS011;17763;48.730;9.136;2024-03-08T03:06:40;30.77;;;19.30;;
31112;SDS011;17763;48.730;9.136;2024-03-08T03:09:06;31.90;;;19.17;;
31112;SDS011;17763;48.730;9.136;2024-03-08T03:11:32;33.30;;;18.50;;
31112;SDS011;17763;48.730;9.136;2024-03-08T03:13:57;34.45;;;19.17;;
31112;SDS011;17763;48.730;9.136;2024-03-08T03:16:23;30.42;;;18.73;;
31112;SDS011;17763;48.730;9.136;2024-03-08T03:18:51;36.53;;;21.02;;
31112;SDS011;17763;48.730;9.136;2024-03-08T03:21:19;34.65;;;20.27;;
31112;SDS011;17763;48.730;9.136;2024-03-08T03:23:44;33.83;;;20.02;;
31112;SDS011;17763;48.730;9.136;2024-03-08T03:26:13;32.83;;;20.88;;
31112;SDS011;17763;48.730;9.136;2024-03-08T03:28:42;31.50;;;19.85;;
31112;SDS011;17763;48.730;9.136;2024-03-08T03:31:08;33.35;;;21.00;;
31112;SDS011;17763;48.730;9.136;2024-03-08T03:33:39;37.47;;;20.98;;
31112;SDS011;17763;48.730;9.136;2024-03-08T03:36:05;34.03;;;20.20;;
31112;SDS011;17763;48.730;9.136;2024-03-08T03:38:30;29.77;;;19.40;;
31112;SDS011;17763;48.730;9.136;2024-03-08T03:40:56;30.42;;;19.33;;
31112;SDS011;17763;48.730;9.136;2024-03-08T03:43:29;33.28;;;20.27;;
31112;SDS011;17763;48.730;9.136;2024-03-08T03:45:55;31.65;;;19.27;;
31112;SDS011;17763;48.730;9.136;2024-03-08T03:48:20;31.80;;;19.08;;
31112;SDS011;17763;48.730;9.136;2024-03-08T03:50:46;33.90;;;19.58;;
31112;SDS011;17763;48.730;9.136;2024-03-08T03:53:12;32.10;;;20.05;;
31112;SDS011;17763;48.730;9.136;2024-03-08T03:55:38;31.08;;;19.88;;
31112;SDS011;17763;48.730;9.136;2024-03-08T03:58:04;35.88;;;20.92;;
31112;SDS011;17763;48.730;9.136;2024-03-08T04:00:29;33.88;;;20.33;;
31112;SDS011;17763;48.730;9.136;2024-03-08T04:02:55;32.67;;;21.88;;
31112;SDS011;17763;48.730;9.136;2024-03-08T04:05:26;36.13;;;21.65;;
31112;SDS011;17763;48.730;9.136;2024-03-08T04:07:52;35.30;;;20.52;;
31112;SDS011;17763;48.730;9.136;2024-03-08T04:10:17;33.00;;;20.42;;
31112;SDS011;17763;48.730;9.136;2024-03-08T04:12:45;35.65;;;21.52;;
31112;SDS011;17763;48.730;9.136;2024-03-08T04:15:12;32.22;;;20.23;;
31112;SDS011;17763;48.730;9.136;2024-03-08T04:17:37;35.78;;;21.52;;
31112;SDS011;17763;48.730;9.136;2024-03-08T04:20:05;36.20;;;21.60;;
31112;SDS011;17763;48.730;9.136;2024-03-08T04:22:38;32.47;;;21.50;;
31112;SDS011;17763;48.730;9.136;2024-03-08T04:25:07;34.88;;;21.00;;
31112;SDS011;17763;48.730;9.136;2024-03-08T04:27:35;32.88;;;20.08;;
31112;SDS011;17763;48.730;9.136;2024-03-08T04:30:01;34.10;;;21.48;;
31112;SDS011;17763;48.730;9.136;2024-03-08T04:32:27;31.77;;;20.17;;
31112;SDS011;17763;48.730;9.136;2024-03-08T04:34:54;34.15;;;20.40;;
31112;SDS011;17763;48.730;9.136;2024-03-08T04:37:20;33.55;;;20.50;;
31112;SDS011;17763;48.730;9.136;2024-03-08T04:39:48;36.38;;;21.23;;
31112;SDS011;17763;48.730;9.136;2024-03-08T04:42:14;36.80;;;22.38;;
31112;SDS011;17763;48.730;9.136;2024-03-08T04:44:40;36.20;;;22.23;;
31112;SDS011;17763;48.730;9.136;2024-03-08T04:47:11;37.10;;;21.95;;
31112;SDS011;17763;48.730;9.136;2024-03-08T04:49:36;38.70;;;22.75;;
31112;SDS011;17763;48.730;9.136;2024-03-08T04:52:04;37.08;;;21.42;;
31112;SDS011;17763;48.730;9.136;2024-03-08T04:54:30;35.70;;;21.40;;
31112;SDS011;17763;48.730;9.136;2024-03-08T04:56:59;38.08;;;22.92;;
31112;SDS011;17763;48.730;9.136;2024-03-08T04:59:25;37.92;;;22.83;;
31112;SDS011;17763;48.730;9.136;2024-03-08T05:01:53;35.38;;;22.13;;
31112;SDS011;17763;48.730;9.136;2024-03-08T05:04:19;38.80;;;22.23;;
31112;SDS011;17763;48.730;9.136;2024-03-08T05:06:45;34.28;;;21.33;;
31112;SDS011;17763;48.730;9.136;2024-03-08T05:09:15;38.97;;;22.05;;
31112;SDS011;17763;48.730;9.136;2024-03-08T05:11:45;36.80;;;22.17;;
31112;SDS011;17763;48.730;9.136;2024-03-08T05:14:12;40.73;;;22.67;;
31112;SDS011;17763;48.730;9.136;2024-03-08T05:16:45;33.67;;;21.15;;
31112;SDS011;17763;48.730;9.136;2024-03-08T05:19:22;31.33;;;20.30;;
31112;SDS011;17763;48.730;9.136;2024-03-08T05:24:17;36.17;;;21.15;;
31112;SDS011;17763;48.730;9.136;2024-03-08T05:26:43;34.10;;;21.58;;
31112;SDS011;17763;48.730;9.136;2024-03-08T05:29:09;39.63;;;23.38;;
31112;SDS011;17763;48.730;9.136;2024-03-08T05:31:47;39.70;;;23.50;;
31112;SDS011;17763;48.730;9.136;2024-03-08T05:34:15;36.60;;;21.35;;
31112;SDS011;17763;48.730;9.136;2024-03-08T05:36:41;36.70;;;22.73;;
31112;SDS011;17763;48.730;9.136;2024-03-08T05:39:14;39.17;;;22.85;;
31112;SDS011;17763;48.730;9.136;2024-03-08T05:41:40;42.25;;;23.65;;
31112;SDS011;17763;48.730;9.136;2024-03-08T05:44:06;37.53;;;22.60;;
31112;SDS011;17763;48.730;9.136;2024-03-08T05:46:33;36.33;;;22.88;;
31112;SDS011;17763;48.730;9.136;2024-03-08T05:48:58;41.78;;;22.40;;
31112;SDS011;17763;48.730;9.136;2024-03-08T05:51:25;37.38;;;22.02;;
31112;SDS011;17763;48.730;9.136;2024-03-08T05:53:53;38.20;;;22.45;;
31112;SDS011;17763;48.730;9.136;2024-03-08T05:56:20;40.65;;;23.33;;
31112;SDS011;17763;48.730;9.136;2024-03-08T05:58:48;40.53;;;22.92;;
31112;SDS011;17763;48.730;9.136;2024-03-08T06:01:15;37.05;;;22.05;;
31112;SDS011;17763;48.730;9.136;2024-03-08T06:03:41;41.25;;;23.50;;
31112;SDS011;17763;48.730;9.136;2024-03-08T06:06:13;41.80;;;23.77;;
31112;SDS011;17763;48.730;9.136;2024-03-08T06:08:39;43.10;;;24.98;;
31112;SDS011;17763;48.730;9.136;2024-03-08T06:11:05;38.15;;;23.63;;
31112;SDS011;17763;48.730;9.136;2024-03-08T06:13:34;37.78;;;23.38;;
31112;SDS011;17763;48.730;9.136;2024-03-08T06:16:00;43.28;;;24.15;;
31112;SDS011;17763;48.730;9.136;2024-03-08T06:18:29;42.17;;;22.88;;
31112;SDS011;17763;48.730;9.136;2024-03-08T06:20:57;39.40;;;24.13;;
31112;SDS011;17763;48.730;9.136;2024-03-08T06:23:23;37.42;;;22.27;;
31112;SDS011;17763;48.730;9.136;2024-03-08T06:25:49;35.70;;;22.35;;
31112;SDS011;17763;48.730;9.136;2024-03-08T06:28:14;38.85;;;23.10;;
31112;SDS011;17763;48.730;9.136;2024-03-08T06:30:40;38.58;;;21.20;;
31112;SDS011;17763;48.730;9.136;2024-03-08T06:33:07;36.22;;;23.38;;
31112;SDS011;17763;48.730;9.136;2024-03-08T06:35:35;38.55;;;22.20;;
31112;SDS011;17763;48.730;9.136;2024-03-08T06:38:03;32.97;;;22.33;;
31112;SDS011;17763;48.730;9.136;2024-03-08T06:40:29;41.42;;;23.98;;
31112;SDS011;17763;48.730;9.136;2024-03-08T06:42:57;38.47;;;22.98;;
31112;SDS011;17763;48.730;9.136;2024-03-08T06:45:23;36.58;;;22.58;;
31112;SDS011;17763;48.730;9.136;2024-03-08T06:47:49;40.42;;;24.15;;
31112;SDS011;17763;48.730;9.136;2024-03-08T06:50:17;36.70;;;23.30;;
31112;SDS011;17763;48.730;9.136;2024-03-08T06:52:42;40.33;;;24.23;;
31112;SDS011;17763;48.730;9.136;2024-03-08T06:55:09;35.63;;;21.98;;
31112;SDS011;17763;48.730;9.136;2024-03-08T06:57:37;39.70;;;23.98;;
31112;SDS011;17763;48.730;9.136;2024-03-08T07:00:05;40.25;;;23.98;;
31112;SDS011;17763;48.730;9.136;2024-03-08T07:02:34;35.53;;;23.98;;
31112;SDS011;17763;48.730;9.136;2024-03-08T07:05:00;41.08;;;22.88;;
31112;SDS011;17763;48.730;9.136;2024-03-08T07:07:26;34.28;;;22.42;;
31112;SDS011;17763;48.730;9.136;2024-03-08T07:09:55;41.05;;;23.73;;
31112;SDS011;17763;48.730;9.136;2024-03-08T07:12:21;41.00;;;23.77;;
31112;SDS011;17763;48.730;9.136;2024-03-08T07:14:48;36.00;;;22.83;;
31112;SDS011;17763;48.730;9.136;2024-03-08T07:17:16;36.28;;;22.35;;
31112;SDS011;17763;48.730;9.136;2024-03-08T07:19:42;41.70;;;23.60;;
31112;SDS011;17763;48.730;9.136;2024-03-08T07:22:08;38.35;;;23.73;;
31112;SDS011;17763;48.730;9.136;2024-03-08T07:24:36;39.35;;;23.17;;
31112;SDS011;17763;48.730;9.136;2024-03-08T07:27:05;38.28;;;23.85;;
31112;SDS011;17763;48.730;9.136;2024-03-08T07:29:34;37.75;;;22.42;;
31112;SDS011;17763;48.730;9.136;2024-03-08T07:32:00;38.10;;;23.08;;
31112;SDS011;17763;48.730;9.136;2024-03-08T07:34:25;37.67;;;23.15;;
31112;SDS011;17763;48.730;9.136;2024-03-08T07:36:51;34.17;;;22.70;;
31112;SDS011;17763;48.730;9.136;2024-03-08T07:39:17;39.88;;;23.10;;
31112;SDS011;17763;48.730;9.136;2024-03-08T07:41:44;41.47;;;23.90;;
31112;SDS011;17763;48.730;9.136;2024-03-08T07:44:13;32.58;;;21.23;;
31112;SDS011;17763;48.730;9.136;2024-03-08T07:46:39;35.22;;;22.13;;
31112;SDS011;17763;48.730;9.136;2024-03-08T07:49:06;33.95;;;22.13;;
31112;SDS011;17763;48.730;9.136;2024-03-08T07:51:35;38.88;;;22.50;;
31112;SDS011;17763;48.730;9.136;2024-03-08T07:54:02;40.88;;;24.70;;
31112;SDS011;17763;48.730;9.136;2024-03-08T07:56:29;43.88;;;24.08;;
31112;SDS011;17763;48.730;9.136;2024-03-08T07:58:57;38.13;;;22.95;;
31112;SDS011;17763;48.730;9.136;2024-03-08T08:01:23;36.85;;;22.42;;
31112;SDS011;17763;48.730;9.136;2024-03-08T08:03:49;39.90;;;24.48;;
31112;SDS011;17763;48.730;9.136;2024-03-08T08:06:15;38.40;;;23.65;;
31112;SDS011;17763;48.730;9.136;2024-03-08T08:08:44;33.92;;;20.77;;
31112;SDS011;17763;48.730;9.136;2024-03-08T08:11:10;36.45;;;22.75;;
31112;SDS011;17763;48.730;9.136;2024-03-08T08:13:40;35.25;;;21.52;;
31112;SDS011;17763;48.730;9.136;2024-03-08T08:16:08;47.92;;;29.50;;
31112;SDS011;17763;48.730;9.136;2024-03-08T08:18:35;38.53;;;24.95;;
31112;SDS011;17763;48.730;9.136;2024-03-08T08:21:02;36.50;;;23.52;;
31112;SDS011;17763;48.730;9.136;2024-03-08T08:23:28;37.50;;;22.83;;
31112;SDS011;17763;48.730;9.136;2024-03-08T08:25:55;35.40;;;20.92;;
31112;SDS011;17763;48.730;9.136;2024-03-08T08:28:20;38.00;;;23.48;;
31112;SDS011;17763;48.730;9.136;2024-03-08T08:30:46;35.92;;;23.02;;
31112;SDS011;17763;48.730;9.136;2024-03-08T08:33:14;35.97;;;21.90;;
31112;SDS011;17763;48.730;9.136;2024-03-08T08:35:40;33.85;;;21.33;;
31112;SDS011;17763;48.730;9.136;2024-03-08T08:38:08;34.35;;;20.90;;
31112;SDS011;17763;48.730;9.136;2024-03-08T08:40:34;35.28;;;21.23;;
31112;SDS011;17763;48.730;9.136;2024-03-08T08:43:01;34.80;;;21.75;;
31112;SDS011;17763;48.730;9.136;2024-03-08T08:45:29;38.28;;;23.48;;
31112;SDS011;17763;48.730;9.136;2024-03-08T08:47:57;34.00;;;22.08;;
31112;SDS011;17763;48.730;9.136;2024-03-08T08:50:25;33.30;;;21.08;;
31112;SDS011;17763;48.730;9.136;2024-03-08T08:52:51;35.67;;;21.55;;
31112;SDS011;17763;48.730;9.136;2024-03-08T08:55:18;32.00;;;21.35;;
31112;SDS011;17763;48.730;9.136;2024-03-08T08:57:49;31.40;;;20.70;;
31112;SDS011;17763;48.730;9.136;2024-03-08T09:00:17;32.97;;;19.95;;
31112;SDS011;17763;48.730;9.136;2024-03-08T09:02:45;30.48;;;19.83;;
31112;SDS011;17763;48.730;9.136;2024-03-08T09:05:16;28.33;;;19.67;;
31112;SDS011;17763;48.730;9.136;2024-03-08T09:07:42;32.90;;;22.15;;
31112;SDS011;17763;48.730;9.136;2024-03-08T09:10:12;35.00;;;21.85;;
31112;SDS011;17763;48.730;9.136;2024-03-08T09:12:39;31.50;;;20.58;;
31112;SDS011;17763;48.730;9.136;2024-03-08T09:15:05;33.47;;;20.92;;
31112;SDS011;17763;48.730;9.136;2024-03-08T09:17:36;31.30;;;20.85;;
31112;SDS011;17763;48.730;9.136;2024-03-08T09:20:04;33.90;;;20.80;;
31112;SDS011;17763;48.730;9.136;2024-03-08T09:22:39;33.35;;;20.52;;
31112;SDS011;17763;48.730;9.136;2024-03-08T09:25:08;31.38;;;21.00;;
31112;SDS011;17763;48.730;9.136;2024-03-08T09:27:34;32.40;;;20.98;;
31112;SDS011;17763;48.730;9.136;2024-03-08T09:30:03;32.22;;;19.90;;
31112;SDS011;17763;48.730;9.136;2024-03-08T09:32:29;31.77;;;19.58;;
31112;SDS011;17763;48.730;9.136;2024-03-08T09:34:58;33.00;;;19.73;;
31112;SDS011;17763;48.730;9.136;2024-03-08T09:37:23;32.78;;;20.50;;
31112;SDS011;17763;48.730;9.136;2024-03-08T09:39:49;30.05;;;18.70;;
31112;SDS011;17763;48.730;9.136;2024-03-08T09:42:15;30.48;;;20.10;;
31112;SDS011;17763;48.730;9.136;2024-03-08T09:44:49;32.42;;;20.33;;
31112;SDS011;17763;48.730;9.136;2024-03-08T09:47:15;28.08;;;17.95;;
31112;SDS011;17763;48.730;9.136;2024-03-08T09:49:42;32.05;;;19.40;;
31112;SDS011;17763;48.730;9.136;2024-03-08T09:52:08;29.73;;;20.40;;
31112;SDS011;17763;48.730;9.136;2024-03-08T09:54:35;33.08;;;20.63;;
31112;SDS011;17763;48.730;9.136;2024-03-08T09:57:04;34.13;;;20.67;;
31112;SDS011;17763;48.730;9.136;2024-03-08T09:59:29;33.50;;;21.02;;
31112;SDS011;17763;48.730;9.136;2024-03-08T10:02:18;31.52;;;21.60;;
31112;SDS011;17763;48.730;9.136;2024-03-08T10:04:44;29.65;;;19.55;;
31112;SDS011;17763;48.730;9.136;2024-03-08T10:07:12;31.77;;;20.40;;
31112;SDS011;17763;48.730;9.136;2024-03-08T10:09:38;33.40;;;20.15;;
31112;SDS011;17763;48.730;9.136;2024-03-08T10:12:04;31.38;;;19.52;;
31112;SDS011;17763;48.730;9.136;2024-03-08T10:14:33;28.23;;;19.02;;
31112;SDS011;17763;48.730;9.136;2024-03-08T10:16:59;32.10;;;19.13;;
31112;SDS011;17763;48.730;9.136;2024-03-08T10:19:28;28.00;;;19.35;;
31112;SDS011;17763;48.730;9.136;2024-03-08T10:21:56;30.60;;;19.67;;
31112;SDS011;17763;48.730;9.136;2024-03-08T10:24:24;28.05;;;18.83;;
31112;SDS011;17763;48.730;9.136;2024-03-08T10:27:09;28.25;;;18.77;;
31112;SDS011;17763;48.730;9.136;2024-03-08T10:29:36;29.08;;;19.50;;
31112;SDS011;17763;48.730;9.136;2024-03-08T10:32:04;33.20;;;20.10;;
31112;SDS011;17763;48.730;9.136;2024-03-08T10:34:31;26.48;;;18.77;;
31112;SDS011;17763;48.730;9.136;2024-03-08T10:36:58;33.20;;;20.27;;
31112;SDS011;17763;48.730;9.136;2024-03-08T10:39:29;36.28;;;21.25;;
31112;SDS011;17763;48.730;9.136;2024-03-08T10:42:02;30.88;;;19.48;;
31112;SDS011;17763;48.730;9.136;2024-03-08T10:47:30;27.60;;;18.73;;
31112;SDS011;17763;48.730;9.136;2024-03-08T10:50:07;33.47;;;18.67;;
31112;SDS011;17763;48.730;9.136;2024-03-08T10:52:40;31.55;;;19.48;;
31112;SDS011;17763;48.730;9.136;2024-03-08T10:55:05;30.95;;;19.20;;
31112;SDS011;17763;48.730;9.136;2024-03-08T10:57:38;28.67;;;19.15;;
31112;SDS011;17763;48.730;9.136;2024-03-08T11:00:05;27.95;;;18.13;;
31112;SDS011;17763;48.730;9.136;2024-03-08T11:02:35;30.10;;;18.90;;
31112;SDS011;17763;48.730;9.136;2024-03-08T11:05:02;27.98;;;18.75;;
31112;SDS011;17763;48.730;9.136;2024-03-08T11:07:33;26.73;;;17.52;;
31112;SDS011;17763;48.730;9.136;2024-03-08T11:12:38;34.25;;;21.63;;
31112;SDS011;17763;48.730;9.136;2024-03-08T11:15:10;28.80;;;18.70;;
31112;SDS011;17763;48.730;9.136;2024-03-08T11:20:15;26.88;;;17.90;;
31112;SDS011;17763;48.730;9.136;2024-03-08T11:23:16;26.23;;;18.23;;
31112;SDS011;17763;48.730;9.136;2024-03-08T11:25:40;25.02;;;17.30;;
31112;SDS011;17763;48.730;9.136;2024-03-08T11:30:42;26.27;;;18.83;;
31112;SDS011;17763;48.730;9.136;2024-03-08T11:33:12;27.35;;;17.90;;
31112;SDS011;17763;48.730;9.136;2024-03-08T11:35:38;26.75;;;17.67;;
31112;SDS011;17763;48.730;9.136;2024-03-08T11:38:07;27.20;;;17.65;;
31112;SDS011;17763;48.730;9.136;2024-03-08T11:40:34;25.52;;;17.05;;
31112;SDS011;17763;48.730;9.136;2024-03-08T11:43:01;24.30;;;17.15;;
31112;SDS011;17763;48.730;9.136;2024-03-08T11:45:32;28.98;;;17.75;;
31112;SDS011;17763;48.730;9.136;2024-03-08T11:48:06;27.52;;;17.23;;
31112;SDS011;17763;48.730;9.136;2024-03-08T11:50:32;26.25;;;18.55;;
31112;SDS011;17763;48.730;9.136;2024-03-08T11:53:02;26.67;;;18.33;;
31112;SDS011;17763;48.730;9.136;2024-03-08T11:55:29;23.73;;;16.45;;
31112;SDS011;17763;48.730;9.136;2024-03-08T11:58:05;25.63;;;17.70;;
31112;SDS011;17763;48.730;9.136;2024-03-08T12:00:33;30.35;;;19.75;;
31112;SDS011;17763;48.730;9.136;2024-03-08T12:03:08;28.00;;;19.00;;
31112;SDS011;17763;48.730;9.136;2024-03-08T12:05:37;28.00;;;18.35;;
31112;SDS011;17763;48.730;9.136;2024-03-08T12:08:03;24.00;;;17.27;;
31112;SDS011;17763;48.730;9.136;2024-03-08T12:10:37;26.45;;;18.08;;
31112;SDS011;17763;48.730;9.136;2024-03-08T12:13:06;27.08;;;18.90;;
31112;SDS011;17763;48.730;9.136;2024-03-08T12:15:37;27.95;;;19.52;;
31112;SDS011;17763;48.730;9.136;2024-03-08T12:18:04;27.45;;;18.52;;
31112;SDS011;17763;48.730;9.136;2024-03-08T12:20:32;28.30;;;19.20;;
31112;SDS011;17763;48.730;9.136;2024-03-08T12:22:58;30.45;;;19.90;;
31112;SDS011;17763;48.730;9.136;2024-03-08T12:25:27;30.70;;;19.25;;
31112;SDS011;17763;48.730;9.136;2024-03-08T12:28:12;29.63;;;19.67;;
31112;SDS011;17763;48.730;9.136;2024-03-08T12:30:47;28.93;;;19.30;;
31112;SDS011;17763;48.730;9.136;2024-03-08T12:33:18;27.58;;;19.05;;
31112;SDS011;17763;48.730;9.136;2024-03-08T12:35:50;29.50;;;19.42;;
31112;SDS011;17763;48.730;9.136;2024-03-08T12:38:18;28.08;;;18.15;;
31112;SDS011;17763;48.730;9.136;2024-03-08T12:40:49;31.10;;;19.92;;
31112;SDS011;17763;48.730;9.136;2024-03-08T12:43:15;31.92;;;19.65;;
31112;SDS011;17763;48.730;9.136;2024-03-08T12:45:43;29.38;;;19.63;;
31112;SDS011;17763;48.730;9.136;2024-03-08T12:48:12;27.67;;;19.00;;
31112;SDS011;17763;48.730;9.136;2024-03-08T12:50:40;34.08;;;19.92;;
31112;SDS011;17763;48.730;9.136;2024-03-08T12:53:10;30.10;;;19.77;;
31112;SDS011;17763;48.730;9.136;2024-03-08T12:55:38;31.30;;;19.30;;
31112;SDS011;17763;48.730;9.136;2024-03-08T12:58:05;34.30;;;20.65;;
31112;SDS011;17763;48.730;9.136;2024-03-08T13:00:32;30.17;;;19.40;;
31112;SDS011;17763;48.730;9.136;2024-03-08T13:03:01;35.80;;;19.52;;
31112;SDS011;17763;48.730;9.136;2024-03-08T13:05:27;30.85;;;20.55;;
31112;SDS011;17763;48.730;9.136;2024-03-08T13:07:55;34.00;;;20.50;;
31112;SDS011;17763;48.730;9.136;2024-03-08T13:10:22;32.92;;;20.60;;
31112;SDS011;17763;48.730;9.136;2024-03-08T13:12:47;32.42;;;20.73;;
31112;SDS011;17763;48.730;9.136;2024-03-08T13:15:16;32.03;;;19.92;;
31112;SDS011;17763;48.730;9.136;2024-03-08T13:17:47;32.92;;;20.17;;
31112;SDS011;17763;48.730;9.136;2024-03-08T13:20:13;36.10;;;20.02;;
31112;SDS011;17763;48.730;9.136;2024-03-08T13:22:45;32.30;;;20.58;;
31112;SDS011;17763;48.730;9.136;2024-03-08T13:25:12;32.80;;;20.13;;
31112;SDS011;17763;48.730;9.136;2024-03-08T13:27:40;32.17;;;20.63;;
31112;SDS011;17763;48.730;9.136;2024-03-08T13:30:07;31.35;;;20.33;;
31112;SDS011;17763;48.730;9.136;2024-03-08T13:32:40;34.80;;;21.23;;
31112;SDS011;17763;48.730;9.136;2024-03-08T13:35:09;35.50;;;21.40;;
31112;SDS011;17763;48.730;9.136;2024-03-08T13:37:41;32.38;;;19.77;;
31112;SDS011;17763;48.730;9.136;2024-03-08T13:40:10;29.75;;;19.15;;
31112;SDS011;17763;48.730;9.136;2024-03-08T13:42:37;29.27;;;18.33;;
31112;SDS011;17763;48.730;9.136;2024-03-08T13:45:03;32.95;;;20.45;;
31112;SDS011;17763;48.730;9.136;2024-03-08T13:47:32;31.02;;;19.67;;
31112;SDS011;17763;48.730;9.136;2024-03-08T13:49:59;37.38;;;23.08;;
31112;SDS011;17763;48.730;9.136;2024-03-08T13:52:25;33.95;;;20.67;;
31112;SDS011;17763;48.730;9.136;2024-03-08T13:54:54;30.52;;;19.40;;
31112;SDS011;17763;48.730;9.136;2024-03-08T13:57:20;35.70;;;21.02;;
31112;SDS011;17763;48.730;9.136;2024-03-08T13:59:50;29.98;;;19.58;;
31112;SDS011;17763;48.730;9.136;2024-03-08T14:02:18;30.07;;;19.63;;
31112;SDS011;17763;48.730;9.136;2024-03-08T14:04:44;28.92;;;18.33;;
31112;SDS011;17763;48.730;9.136;2024-03-08T14:07:10;34.88;;;20.30;;
31112;SDS011;17763;48.730;9.136;2024-03-08T14:09:36;28.73;;;18.70;;
31112;SDS011;17763;48.730;9.136;2024-03-08T14:12:03;32.78;;;20.02;;
31112;SDS011;17763;48.730;9.136;2024-03-08T14:14:34;30.50;;;19.52;;
31112;SDS011;17763;48.730;9.136;2024-03-08T14:17:03;28.35;;;19.17;;
31112;SDS011;17763;48.730;9.136;2024-03-08T14:19:29;33.38;;;20.27;;
31112;SDS011;17763;48.730;9.136;2024-03-08T14:21:59;31.92;;;19.65;;
31112;SDS011;17763;48.730;9.136;2024-03-08T14:24:29;34.13;;;21.38;;
31112;SDS011;17763;48.730;9.136;2024-03-08T14:26:55;32.50;;;20.42;;
31112;SDS011;17763;48.730;9.136;2024-03-08T14:29:24;32.45;;;20.38;;
31112;SDS011;17763;48.730;9.136;2024-03-08T14:31:54;33.90;;;18.60;;
31112;SDS011;17763;48.730;9.136;2024-03-08T14:34:24;29.15;;;19.38;;
31112;SDS011;17763;48.730;9.136;2024-03-08T14:36:54;32.30;;;19.88;;
31112;SDS011;17763;48.730;9.136;2024-03-08T14:39:21;37.40;;;19.02;;